createdAt,value
2018-09-25T07:46:59.797Z,4.00
2018-09-25T08:45:41.461Z,5.30
2018-09-25T08:50:48.038Z,4.90
2018-09-25T08:53:21.414Z,5.45
2018-09-25T09:03:33.894Z,4.20
2018-09-25T09:13:46.392Z,2.97
2018-09-25T09:16:20.018Z,3.10
2018-09-25T09:18:54.631Z,3.60
2018-09-25T09:24:08.622Z,3.05
2018-09-25T09:26:42.324Z,2.60
2018-09-25T09:31:48.996Z,3.23
2018-09-25T09:34:22.546Z,3.00
2018-09-25T09:36:56.098Z,2.37
2018-09-25T09:47:09.546Z,2.10
2018-09-25T09:52:15.878Z,2.00
2018-09-25T09:54:49.505Z,2.20
2018-09-25T09:57:22.936Z,1.60
2018-09-25T10:17:49.228Z,1.40
2018-09-25T10:33:07.839Z,0.90
2018-09-25T10:35:42.166Z,0.90
2018-09-25T10:40:48.573Z,1.10
2018-09-25T10:43:22.175Z,1.30
2018-09-25T10:45:56.021Z,1.10
2018-09-25T10:48:29.578Z,1.43
2018-09-25T10:51:03.060Z,1.00
2018-09-25T10:53:36.705Z,1.00
2018-09-25T10:56:10.425Z,1.13
2018-09-25T10:58:43.892Z,1.17
2018-09-25T11:01:17.623Z,1.13
2018-09-25T11:03:51.210Z,1.77
2018-09-25T11:06:24.831Z,1.23
2018-09-25T11:08:58.463Z,1.10
2018-09-25T11:11:33.158Z,1.10
2018-09-25T11:14:06.731Z,1.30
2018-09-25T11:16:41.209Z,1.10
2018-09-25T11:19:14.825Z,1.20
2018-09-25T11:21:48.410Z,1.50
2018-09-25T11:24:22.088Z,1.23
2018-09-25T11:26:55.518Z,1.20
2018-09-25T11:29:30.210Z,1.03
2018-09-25T11:32:05.862Z,1.10
2018-09-25T11:34:39.397Z,1.30
2018-09-25T11:37:13.079Z,1.43
2018-09-25T11:42:19.459Z,1.30
2018-09-25T11:44:53.528Z,1.07
2018-09-25T11:47:27.220Z,1.00
2018-09-25T11:50:00.971Z,1.17
2018-09-25T11:52:34.579Z,1.20
2018-09-25T12:07:53.001Z,1.10
2018-09-25T12:10:26.456Z,1.10
2018-09-25T12:13:00.090Z,0.93
2018-09-25T12:15:33.587Z,1.00
2018-09-25T12:18:07.062Z,0.90
2018-09-25T12:20:40.723Z,1.00
2018-09-25T12:23:14.458Z,1.10
2018-09-25T12:25:47.964Z,1.03
2018-09-25T12:28:25.673Z,1.13
2018-09-25T12:30:59.489Z,1.00
2018-09-25T12:33:33.173Z,1.00
2018-09-25T12:36:06.854Z,0.83
2018-09-25T12:38:40.378Z,1.17
2018-09-25T12:41:14.012Z,0.90
2018-09-25T12:43:48.584Z,1.00
2018-09-25T12:46:22.242Z,0.63
2018-09-25T12:48:55.791Z,0.77
2018-09-25T12:51:29.297Z,0.83
2018-09-25T12:54:02.871Z,1.00
2018-09-25T12:56:36.269Z,0.70
2018-09-25T12:59:09.956Z,1.00
2018-09-25T13:01:43.647Z,1.10
2018-09-25T13:04:17.164Z,0.70
2018-09-25T13:06:50.525Z,0.90
2018-09-25T13:09:24.072Z,0.77
2018-09-25T13:11:57.974Z,0.70
2018-09-25T13:14:32.024Z,1.33
2018-09-25T13:17:05.575Z,0.90
2018-09-25T13:19:40.692Z,0.90
2018-09-25T13:22:14.185Z,1.00
2018-09-25T13:24:48.176Z,0.80
2018-09-25T13:27:22.203Z,0.93
2018-09-25T13:29:57.168Z,0.98
2018-09-25T13:32:30.819Z,0.80
2018-09-25T13:35:04.488Z,1.23
2018-09-25T13:37:38.096Z,0.90
2018-09-25T13:40:11.927Z,1.03
2018-09-25T13:42:45.390Z,1.07
2018-09-25T13:45:20.094Z,1.17
2018-09-25T13:47:55.681Z,1.30
2018-09-25T13:50:29.095Z,1.00
2018-09-25T13:53:02.498Z,1.27
2018-09-25T13:55:36.194Z,1.20
2018-09-25T13:58:10.718Z,1.27
2018-09-25T14:00:44.359Z,1.00
2018-09-25T14:03:17.907Z,0.90
2018-09-25T14:05:51.473Z,0.88
2018-09-25T14:08:25.071Z,0.80
2018-09-25T14:10:58.711Z,0.80
2018-09-25T14:13:32.282Z,0.90
2018-09-25T14:16:05.842Z,0.90
2018-09-25T14:18:39.495Z,0.97
2018-09-25T14:21:13.016Z,0.90
2018-09-25T14:23:46.730Z,1.30
2018-09-25T14:26:20.252Z,1.00
2018-09-25T14:28:53.747Z,1.10
2018-09-25T14:31:27.254Z,0.90
2018-09-25T14:34:00.812Z,1.00
2018-09-25T14:36:34.422Z,1.10
2018-09-25T14:39:07.925Z,0.97
2018-09-25T14:41:41.334Z,1.03
2018-09-25T14:44:14.791Z,0.90
2018-09-25T14:46:48.332Z,1.00
2018-09-25T14:49:22.108Z,1.20
2018-09-25T14:51:55.621Z,0.93
2018-09-25T14:54:29.140Z,1.30
2018-09-25T14:57:02.684Z,0.90
2018-09-25T14:59:36.109Z,1.10
2018-09-25T15:02:09.492Z,0.83
2018-09-25T15:04:42.836Z,1.10
2018-09-25T15:07:16.540Z,1.00
2018-09-25T15:09:50.002Z,1.00
2018-09-25T15:12:23.602Z,1.20
2018-09-25T15:14:57.102Z,1.90
2018-09-25T15:17:31.605Z,1.10
2018-09-25T15:20:05.203Z,1.00
2018-09-25T15:22:39.695Z,1.10
2018-09-25T15:25:13.363Z,0.80
2018-09-25T15:27:46.884Z,0.60
2018-09-25T15:30:20.476Z,1.00
2018-09-25T15:32:53.998Z,1.00
2018-09-25T15:35:27.660Z,0.70
2018-09-25T15:38:01.039Z,0.90
2018-09-25T15:40:35.700Z,1.10
2018-09-25T15:43:09.322Z,1.20
2018-09-25T15:45:43.339Z,1.37
2018-09-25T15:48:16.812Z,1.10
2018-09-25T15:50:50.450Z,0.90
2018-09-25T15:53:23.875Z,0.90
2018-09-25T15:55:58.931Z,1.00
2018-09-25T15:58:32.731Z,1.50
2018-09-25T16:01:06.364Z,1.50
2018-09-25T16:03:39.894Z,1.10
2018-09-25T16:06:14.471Z,1.00
2018-09-25T16:08:49.414Z,1.13
2018-09-25T16:11:24.395Z,0.93
2018-09-25T16:13:58.017Z,1.00
2018-09-25T16:16:33.139Z,0.93
2018-09-25T16:19:06.845Z,1.80
2018-09-25T16:21:40.429Z,1.50
2018-09-25T16:24:14.385Z,1.00
2018-09-25T16:26:48.042Z,1.30
2018-09-25T16:29:21.557Z,1.20
2018-09-25T16:58:47.872Z,1.27
2018-09-25T17:01:25.103Z,1.10
2018-09-25T17:19:51.198Z,15.17
2018-09-25T17:25:11.099Z,14.57
2018-09-25T17:30:17.745Z,2.50
2018-09-25T17:32:51.457Z,1.90
2018-09-25T17:37:58.153Z,2.63
2018-09-25T17:53:19.462Z,3.37
2018-09-25T17:55:56.837Z,2.70
